createdAt,value
2022-11-07T00:03:55.103Z,78.94
2022-11-07T00:08:59.609Z,76.95
2022-11-07T00:14:03.915Z,76.58
2022-11-07T00:19:06.818Z,74.94
2022-11-07T00:24:10.667Z,74.98
2022-11-07T00:29:16.255Z,74.36
2022-11-07T00:34:19.598Z,74.14
2022-11-07T00:39:22.745Z,76.15
2022-11-07T00:44:27.089Z,76.24
2022-11-07T00:49:30.003Z,77.89
2022-11-07T00:54:32.891Z,76.75
2022-11-07T00:59:37.163Z,76.64
2022-11-07T01:04:57.553Z,74.88
2022-11-07T01:10:00.534Z,74.02
2022-11-07T01:15:05.257Z,75.05
2022-11-07T01:20:09.528Z,74.73
2022-11-07T01:25:12.442Z,72.35
2022-11-07T01:30:16.769Z,73.47
2022-11-07T01:35:19.733Z,73.98
2022-11-07T01:40:22.778Z,71.97
2022-11-07T01:45:29.631Z,70.83
2022-11-07T01:50:32.879Z,75.40
2022-11-07T01:55:37.022Z,75.60
2022-11-07T02:00:41.421Z,77.41
2022-11-07T02:05:50.019Z,74.13
2022-11-07T02:10:54.712Z,77.15
2022-11-07T02:16:00.967Z,78.11
2022-11-07T02:21:12.112Z,78.77
2022-11-07T02:26:16.814Z,78.18
2022-11-07T02:31:19.755Z,76.71
2022-11-07T02:36:25.355Z,76.52
2022-11-07T02:41:35.050Z,77.19
2022-11-07T02:46:38.562Z,78.00
2022-11-07T02:51:41.459Z,79.25
2022-11-07T02:56:45.882Z,80.17
2022-11-07T03:01:48.905Z,79.77
2022-11-07T03:06:51.974Z,81.13
2022-11-07T03:11:56.435Z,80.93
2022-11-07T03:16:59.387Z,81.16
2022-11-07T03:22:02.537Z,81.04
2022-11-07T03:27:06.868Z,81.44
2022-11-07T03:32:09.832Z,81.72
2022-11-07T03:37:12.801Z,81.37
2022-11-07T03:42:17.114Z,81.93
2022-11-07T03:47:20.066Z,82.42
2022-11-07T03:52:22.958Z,82.47
2022-11-07T03:57:27.283Z,82.14
2022-11-07T04:02:30.326Z,81.73
2022-11-07T04:07:33.338Z,82.05
2022-11-07T04:12:55.350Z,82.68
2022-11-07T04:17:58.271Z,83.99
2022-11-07T04:23:01.177Z,84.38
2022-11-07T04:28:05.798Z,85.08
2022-11-07T04:33:08.714Z,84.72
2022-11-07T04:38:11.669Z,84.70
2022-11-07T04:43:16.205Z,85.45
2022-11-07T04:48:19.970Z,84.69
2022-11-07T04:53:23.212Z,84.06
2022-11-07T04:58:27.523Z,84.49
2022-11-07T05:03:30.444Z,84.02
2022-11-07T05:08:33.331Z,83.77
2022-11-07T05:13:37.636Z,82.70
2022-11-07T05:18:40.505Z,81.89
2022-11-07T05:23:43.437Z,81.51
2022-11-07T05:28:47.709Z,85.53
2022-11-07T05:33:50.607Z,81.75
2022-11-07T05:38:54.598Z,81.78
2022-11-07T05:43:59.367Z,82.73
2022-11-07T05:49:02.262Z,83.75
2022-11-07T05:54:05.355Z,84.19
2022-11-07T05:59:10.039Z,84.91
2022-11-07T06:04:12.910Z,84.72
2022-11-07T06:09:15.930Z,85.83
2022-11-07T06:14:20.314Z,85.59
2022-11-07T06:19:23.205Z,86.27
2022-11-07T06:24:26.086Z,85.75
2022-11-07T06:29:30.403Z,85.43
2022-11-07T06:34:33.311Z,86.30
2022-11-07T06:39:36.213Z,85.69
2022-11-07T06:44:40.480Z,86.12
2022-11-07T06:49:43.379Z,86.11
2022-11-07T06:54:46.354Z,85.33
2022-11-07T06:59:52.040Z,86.78
2022-11-07T07:04:55.104Z,85.51
2022-11-07T07:09:58.057Z,85.99
2022-11-07T07:15:02.406Z,86.03
2022-11-07T07:20:06.935Z,86.27
2022-11-07T07:25:11.598Z,85.80
2022-11-07T07:30:16.584Z,86.01
2022-11-07T07:35:19.543Z,85.54
2022-11-07T07:40:22.967Z,84.15
2022-11-07T07:45:27.314Z,81.93
2022-11-07T07:50:30.275Z,81.04
2022-11-07T07:55:33.202Z,79.61
2022-11-07T08:00:37.511Z,78.05
2022-11-07T08:05:41.022Z,77.14
2022-11-07T08:10:43.937Z,76.59
2022-11-07T08:15:48.223Z,74.88
2022-11-07T08:20:52.292Z,75.27
2022-11-07T08:25:57.383Z,74.75
2022-11-07T08:31:04.355Z,75.57
2022-11-07T08:36:08.657Z,75.63
2022-11-07T08:41:11.562Z,75.89
2022-11-07T08:46:15.918Z,76.06
2022-11-07T08:51:18.845Z,73.93
2022-11-07T08:56:21.740Z,72.94
2022-11-07T09:01:26.125Z,72.11
2022-11-07T09:06:29.114Z,71.14
2022-11-07T09:11:32.096Z,71.79
2022-11-07T09:16:36.375Z,69.75
2022-11-07T09:21:39.425Z,70.73
2022-11-07T09:26:42.344Z,69.86
2022-11-07T09:31:46.627Z,69.02
2022-11-07T09:36:49.522Z,69.30
2022-11-07T09:41:57.740Z,68.33
2022-11-07T09:47:08.200Z,68.07
2022-11-07T09:52:17.117Z,67.01
2022-11-07T09:57:21.182Z,65.32
2022-11-07T10:02:30.355Z,65.35
2022-11-07T10:07:47.276Z,63.42
2022-11-07T10:13:11.866Z,63.98
2022-11-07T10:18:23.953Z,62.04
2022-11-07T10:23:40.529Z,62.43
2022-11-07T10:28:46.285Z,60.53
2022-11-07T10:33:55.254Z,60.54
2022-11-07T10:38:58.636Z,60.30
2022-11-07T10:44:04.538Z,60.24
2022-11-07T10:49:19.975Z,60.01
2022-11-07T10:54:29.152Z,60.74
2022-11-07T10:59:36.423Z,60.45
2022-11-07T11:04:51.078Z,60.16
2022-11-07T11:09:56.665Z,59.60
2022-11-07T11:15:14.304Z,60.18
2022-11-07T11:20:47.576Z,60.14
2022-11-07T11:25:52.700Z,60.01
2022-11-07T11:31:00.185Z,59.59
2022-11-07T11:36:12.080Z,59.74
2022-11-07T11:41:21.407Z,59.77
2022-11-07T11:46:31.828Z,59.57
2022-11-07T11:51:42.051Z,59.74
2022-11-07T11:56:53.290Z,60.23
2022-11-07T12:02:10.374Z,61.21
2022-11-07T12:07:32.415Z,61.62
2022-11-07T12:12:49.637Z,60.97
2022-11-07T12:17:59.829Z,61.15
2022-11-07T12:23:19.652Z,61.58
2022-11-07T12:28:37.643Z,61.51
2022-11-07T12:33:48.774Z,62.23
2022-11-07T12:39:09.895Z,61.41
2022-11-07T12:44:31.060Z,62.57
2022-11-07T12:49:45.815Z,63.13
2022-11-07T12:54:57.194Z,61.98
2022-11-07T13:00:06.587Z,62.83
2022-11-07T13:05:36.343Z,62.55
2022-11-07T13:10:52.106Z,62.76
2022-11-07T13:16:14.586Z,63.14
2022-11-07T13:21:17.999Z,62.57
2022-11-07T13:26:46.840Z,62.29
2022-11-07T13:32:05.400Z,61.57
2022-11-07T13:37:14.273Z,62.02
2022-11-07T13:42:19.916Z,61.81
2022-11-07T13:47:30.702Z,61.58
2022-11-07T13:52:42.083Z,62.36
2022-11-07T13:57:53.471Z,61.67
2022-11-07T14:02:58.394Z,61.67
2022-11-07T14:08:03.681Z,61.24
2022-11-07T14:13:10.079Z,61.88
2022-11-07T14:18:16.659Z,62.15
2022-11-07T14:23:22.602Z,61.87
2022-11-07T14:28:34.534Z,62.64
2022-11-07T14:33:37.668Z,62.38
2022-11-07T14:38:47.968Z,62.42
2022-11-07T14:43:53.216Z,62.27
2022-11-07T14:48:56.668Z,62.35
2022-11-07T14:54:04.894Z,63.06
2022-11-07T14:59:11.945Z,63.03
2022-11-07T15:04:29.467Z,62.73
2022-11-07T15:09:33.812Z,63.40
2022-11-07T15:14:38.570Z,63.35
2022-11-07T15:19:41.630Z,63.34
2022-11-07T15:24:46.322Z,63.74
2022-11-07T15:29:56.013Z,63.86
2022-11-07T15:35:12.421Z,64.74
2022-11-07T15:40:23.327Z,64.98
2022-11-07T15:45:27.843Z,65.09
2022-11-07T15:50:30.755Z,65.18
2022-11-07T15:55:34.493Z,64.90
2022-11-07T16:00:38.796Z,65.78
2022-11-07T16:05:42.497Z,66.02
2022-11-07T16:10:48.326Z,68.01
2022-11-07T16:15:57.275Z,68.83
2022-11-07T16:21:00.243Z,68.50
2022-11-07T16:26:03.383Z,68.76
2022-11-07T16:31:07.774Z,69.62
2022-11-07T16:36:21.608Z,69.16
2022-11-07T16:41:24.932Z,69.10
2022-11-07T16:46:30.147Z,69.26
2022-11-07T16:51:33.139Z,68.03
2022-11-07T16:56:36.603Z,67.64
2022-11-07T17:01:41.096Z,68.00
2022-11-07T17:06:47.639Z,68.51
2022-11-07T17:11:50.732Z,69.28
2022-11-07T17:16:55.071Z,69.69
2022-11-07T17:21:58.546Z,71.02
2022-11-07T17:27:01.715Z,70.90
2022-11-07T17:32:06.434Z,71.08
2022-11-07T17:37:15.166Z,70.49
2022-11-07T17:42:18.194Z,70.83
2022-11-07T17:47:29.257Z,71.54
2022-11-07T17:52:32.272Z,72.44
2022-11-07T17:57:35.279Z,72.53
2022-11-07T18:02:39.998Z,74.05
2022-11-07T18:07:44.131Z,72.20
2022-11-07T18:12:47.062Z,72.60
2022-11-07T18:17:51.391Z,72.46
2022-11-07T18:22:54.372Z,72.75
2022-11-07T18:27:57.295Z,72.05
2022-11-07T18:33:01.604Z,72.03
2022-11-07T18:38:04.624Z,73.71
2022-11-07T18:43:09.978Z,73.60
2022-11-07T18:48:16.605Z,72.99
2022-11-07T18:53:20.238Z,73.81
2022-11-07T18:58:23.152Z,72.30
2022-11-07T19:03:27.547Z,72.86
2022-11-07T19:08:32.007Z,72.37
2022-11-07T19:13:36.391Z,72.45
2022-11-07T19:18:44.106Z,72.51
2022-11-07T19:23:50.418Z,74.18
2022-11-07T19:28:54.276Z,73.23
2022-11-07T19:33:58.776Z,73.74
2022-11-07T19:39:03.019Z,73.35
2022-11-07T19:44:07.231Z,74.63
2022-11-07T19:49:11.743Z,74.13
2022-11-07T19:54:14.644Z,74.31
2022-11-07T19:59:17.546Z,74.77
2022-11-07T20:04:21.872Z,73.89
2022-11-07T20:09:24.821Z,74.21
2022-11-07T20:14:27.814Z,73.73
2022-11-07T20:19:33.953Z,73.59
2022-11-07T20:24:36.870Z,73.63
2022-11-07T20:29:39.782Z,73.74
2022-11-07T20:34:44.319Z,73.93
2022-11-07T20:39:47.252Z,74.04
2022-11-07T20:44:51.026Z,74.51
2022-11-07T20:49:55.701Z,73.99
2022-11-07T20:54:58.734Z,75.29
2022-11-07T21:00:01.661Z,75.47
2022-11-07T21:05:21.961Z,74.50
2022-11-07T21:10:24.911Z,75.26
2022-11-07T21:15:27.792Z,76.21
2022-11-07T21:20:32.096Z,77.19
2022-11-07T21:25:35.430Z,77.08
2022-11-07T21:30:38.851Z,76.90
2022-11-07T21:35:43.461Z,76.86
2022-11-07T21:40:46.378Z,75.90
2022-11-07T21:45:49.339Z,76.95
2022-11-07T21:50:53.605Z,76.85
2022-11-07T21:56:00.147Z,76.67
2022-11-07T22:01:03.707Z,76.52
2022-11-07T22:06:10.381Z,75.17
2022-11-07T22:11:13.311Z,74.50
2022-11-07T22:16:18.825Z,74.07
2022-11-07T22:21:24.546Z,74.13
2022-11-07T22:26:28.944Z,74.20
2022-11-07T22:31:32.511Z,75.34
2022-11-07T22:36:36.847Z,75.71
2022-11-07T22:41:40.038Z,75.42
2022-11-07T22:46:42.947Z,75.39
2022-11-07T22:51:47.274Z,75.07
2022-11-07T22:56:50.163Z,75.42
2022-11-07T23:01:53.211Z,76.66
2022-11-07T23:06:57.566Z,76.41
2022-11-07T23:12:00.518Z,75.13
2022-11-07T23:17:03.552Z,74.58
2022-11-07T23:22:07.887Z,75.49
2022-11-07T23:27:10.779Z,75.05
2022-11-07T23:32:16.372Z,75.38
2022-11-07T23:37:20.665Z,75.61
2022-11-07T23:42:23.591Z,75.89
2022-11-07T23:47:44.031Z,75.54
2022-11-07T23:52:48.303Z,75.03
2022-11-07T23:58:08.833Z,75.55
